Tramper — PHAA — position and weather

sailwx.info

Track history (hours):
 
Tides and Currents Weather Stations Pressure Air Temp Water Temp Dewpoint Dewpoint Depression Visibility Wind Speed Wind Dir Waves Ship Positions

Tramper

Last reported at 2015-Jun-19 12:14 UTC. Time now 2015-Jul-06 07:11 UTC.
Position N 26°44' W 079°58'.
Warning: this ship's position is 16 days out of date.

Length 101 m; beam 20 m.

Type: Cargo ship. MMSI: 245867000.

Date/timePositionNaut miles runAvg speedWind from/ knotsBaromVisibWave heightAir tempDewpointWater temp
2015-Jun-19 12:14N 26°44' W 079°58'5 7.3
2015-Jun-19 11:33N 26°46' W 080°03'  
2015-Jun-16 11:32N 26°46' W 080°03'7 6.9
2015-Jun-16 10:33N 26°42' W 079°56'1515.1
2015-Jun-16 09:33N 26°30' W 079°47'1515.0
2015-Jun-16 08:34N 26°18' W 079°37'1414.4
2015-Jun-16 07:33N 26°05' W 079°30'1414.5
2015-Jun-16 06:33N 25°50' W 079°32'1515.0
2015-Jun-16 05:33N 25°36' W 079°35'2115.3
2015-Jun-16 04:09N 25°14' W 079°38'  
Track history (hours):
 
Tides and Currents Weather Stations Pressure Air Temp Water Temp Dewpoint Dewpoint Depression Visibility Wind Speed Wind Dir Waves Ship Positions

Tramper

Last reported at 2015-Jun-19 12:14 UTC. Time now 2015-Jul-06 07:11 UTC.
Position N 26°44' W 079°58'.
Warning: this ship's position is 16 days out of date.

Length 101 m; beam 20 m.

Type: Cargo ship. MMSI: 245867000.

Date/timePositionNaut miles runAvg speedWind from/ knotsBaromVisibWave heightAir tempDewpointWater temp
2015-Jun-19 12:14N 26°44' W 079°58'5 7.3
2015-Jun-19 11:33N 26°46' W 080°03'  
2015-Jun-16 11:32N 26°46' W 080°03'7 6.9
2015-Jun-16 10:33N 26°42' W 079°56'1515.1
2015-Jun-16 09:33N 26°30' W 079°47'1515.0
2015-Jun-16 08:34N 26°18' W 079°37'1414.4
2015-Jun-16 07:33N 26°05' W 079°30'1414.5
2015-Jun-16 06:33N 25°50' W 079°32'1515.0
2015-Jun-16 05:33N 25°36' W 079°35'2115.3
2015-Jun-16 04:09N 25°14' W 079°38'  

Dump ship's entire track history